Metar Aviation Weather Data YSDU Dubbo City Regional

21°C Temp
17°C Dewpoint
78% Humidity
Temperature
32 KM/H
20 MPH
17 KTS
350°
Due North

Wind Speed
Clear
Conditions
Pressure 1003 (hPa) - 29.62 (in)
Visibility 6.2 (mi) - 10 (km)

Current Conditions
YSDU
Dubbo City Regional
Metar :YSDU 211100Z AUTO 35017KT 9999 // NCD 21/17 Q1003
Wed 21st November 21:00 pm

Dubbo City Regional
  Metar Aviation API Data Provided by https://www.checkwx.com/ PHP scripts by weather34.com ©2018